HULO2: Hulah Lake

Data processed at Sat Dec 09 2017 23:02


All information presented herein is the property of the government of the United States of America and may be revised or deleted at any time without prior notice.
Dissemination of this information without the expressed written consent of the Public Affairs Office, Tulsa District U.S. Army Corps of Engineers is strictly prohibited.
These data are gathered electronically and, as presented, have not undergone any form of quality control. These data are not guaranteed to be valid or correct.
Go to home page.
Go to station list.

Upstream stations:

Downstream station:
Previous Day
Next Day
Current Day
    
SHEF ID:       HULO2     Hulah Lake
STATION TYPE:  RESERVOIR
Normal Pool:  Bottom =   710.00, Top =   733.00

               PRECIP ELEVATION   STORAGE    INFLOW   RELEASE  AIR-TEMP  WIND-DIRWIND-SPEED REL-HUMID SOLAR-RAD   VOLTAGE  BAT-LOAD
                   in        ft     ac-ft       cfs       cfs         F       deg       mph         %      W/m2      volt      volt
              Ccp-Rev   Ccp-Rev   Ccp-Rev  Regi-Rev  Regi-Rev   Ccp-Rev   Ccp-Rev   Ccp-Rev   Ccp-Rev   Ccp-Rev   Ccp-Rev   Ccp-Rev
(US/Central)
12/07 00:00      0.00    733.07     16984        17        17     33.17    359.80      7.70     58.68      0.00     12.81     12.57
12/07 01:00      0.00    733.07     16984        17        17     31.32      0.80     10.70     57.29      0.00     12.79     12.57
12/07 02:00      0.00    733.07     16984        17        17     29.19      0.40     10.60     51.88      0.00     12.77     12.57
12/07 03:00      0.00    733.07     16984        17        17     26.92    352.00     14.40     51.01      0.00     12.74     12.57
12/07 04:00      0.00    733.07     16984        17        17     24.71    349.50     12.10     55.31      0.00     12.71     12.49
12/07 05:00      0.00    733.07     16984        17        17     23.20    346.90     11.00     60.06      0.00     12.68     12.49
12/07 06:00      0.00    733.07     16984        17        17     21.96    343.20      9.60     64.14      0.00     12.65     12.41
12/07 07:00      0.00    733.07     16984        17        17     20.25    342.20      7.80     68.94      0.00     12.46     12.41
12/07 08:00      0.00    733.06     16955        17        17     19.51    342.40      9.40     71.51     17.70     12.64     12.33
12/07 09:00      0.00    733.07     16984        17        17     20.89    343.20     12.10     68.07    207.40     12.69     12.41
12/07 10:00      0.00    733.06     16955         0        17     23.61    347.30     12.40     60.16    411.60     12.72     12.41
12/07 11:00      0.00    733.05     16926        17        17     26.31    353.10     12.00     48.78    571.30     13.61     12.41
12/07 12:00      0.00    733.06     16955        17        17     28.58      0.30     10.80     43.48    664.80     13.75     13.37
12/07 13:00      0.00    733.05     16926        17        17     30.60      1.20     10.60     37.04    683.30     13.59     13.29
12/07 14:00      0.00    733.06     16955        17        17     31.84    346.60     11.20     35.56    625.80     13.69     13.44
12/07 15:00      0.00    733.06     16955        17        17     32.92    352.20     10.60     31.10    497.60     13.60     13.44
12/07 16:00      0.00    733.05     16926         0        17     33.10    351.10      9.40     28.85    311.10     13.72     13.37
12/07 17:00      0.00    733.05     16926        17        17     32.47    348.80      7.50     29.21     92.40     13.49     13.37
12/07 18:00      0.00    733.05     16926        17        17     29.26    357.20      5.20     32.57      0.00     12.96     13.21
12/07 19:00      0.00    733.05     16926        17        17     27.52    358.60      5.00     34.88      0.00     12.90     12.73
12/07 20:00      0.00    733.05     16926        17        17     25.92    358.20      3.70     38.00      0.00     12.87     12.65
12/07 21:00      0.00    733.05     16926        17        17     24.33    345.00      2.00     43.53      0.00     12.85     12.65
12/07 22:00      0.00    733.05     16926        17        17     23.79    227.10      2.10     51.04      0.00     12.83     12.65
12/07 23:00      0.00    733.05     16926        17        17     21.56    233.20      1.80     55.67      0.00     12.81     12.57